createdAt,value
2019-05-15T00:01:08.917Z,99542.13
2019-05-15T00:03:58.512Z,99544.61
2019-05-15T00:06:28.684Z,99535.23
2019-05-15T00:08:58.831Z,99532.45
2019-05-15T00:11:28.865Z,99533.22
2019-05-15T00:13:58.929Z,99536.06
2019-05-15T00:16:29.233Z,99530.02
2019-05-15T00:18:59.190Z,99526.26
2019-05-15T00:21:29.018Z,99524.28
2019-05-15T00:23:58.778Z,99520.61
2019-05-15T00:26:30.024Z,99520.53
2019-05-15T00:29:11.688Z,99520.30
2019-05-15T00:31:30.902Z,99517.83
2019-05-15T00:34:00.523Z,99516.77
2019-05-15T00:36:29.981Z,99514.39
2019-05-15T00:38:59.459Z,99512.58
2019-05-15T00:41:29.028Z,99515.56
2019-05-15T00:43:58.599Z,99513.63
2019-05-15T00:46:29.009Z,99521.37
2019-05-15T00:48:59.186Z,99515.47
2019-05-15T00:51:28.769Z,99507.88
2019-05-15T00:53:59.017Z,99510.97
2019-05-15T00:56:28.616Z,99514.16
2019-05-15T00:58:58.827Z,99507.71
2019-05-15T01:01:28.799Z,99506.10
2019-05-15T01:03:58.744Z,99499.37
2019-05-15T01:06:28.582Z,99497.00
2019-05-15T01:08:59.572Z,99499.10
2019-05-15T01:11:48.885Z,99493.64
2019-05-15T01:14:18.685Z,99486.41
2019-05-15T01:16:48.998Z,99486.57
2019-05-15T01:19:18.702Z,99484.77
2019-05-15T01:21:48.328Z,99482.75
2019-05-15T01:24:18.926Z,99488.19
2019-05-15T01:26:49.178Z,99483.59
2019-05-15T01:29:18.816Z,99486.55
2019-05-15T01:31:49.041Z,99484.09
2019-05-15T01:34:18.723Z,99492.44
2019-05-15T01:36:48.948Z,99484.50
2019-05-15T01:39:18.689Z,99479.53
2019-05-15T01:41:49.639Z,99481.31
2019-05-15T01:44:19.266Z,99476.95
2019-05-15T01:46:48.847Z,99479.16
2019-05-15T01:49:18.761Z,99480.41
2019-05-15T01:51:48.375Z,99476.54
2019-05-15T01:54:18.661Z,99472.79
2019-05-15T01:56:49.513Z,99466.80
2019-05-15T01:59:19.156Z,99469.73
2019-05-15T02:02:09.633Z,99470.03
2019-05-15T02:04:39.485Z,99470.06
2019-05-15T02:07:09.197Z,99471.05
2019-05-15T02:09:38.765Z,99471.87
2019-05-15T02:12:08.778Z,99469.97
2019-05-15T02:14:39.207Z,99469.59
2019-05-15T02:17:09.432Z,99468.46
2019-05-15T02:19:39.286Z,99471.69
2019-05-15T02:22:08.869Z,99469.84
2019-05-15T02:24:39.021Z,99468.70
2019-05-15T02:27:09.086Z,99467.80
2019-05-15T02:29:38.707Z,99468.48
2019-05-15T02:32:10.148Z,99465.94
2019-05-15T02:34:39.886Z,99467.87
2019-05-15T02:37:09.575Z,99471.10
2019-05-15T02:39:39.217Z,99474.47
2019-05-15T02:42:09.810Z,99470.77
2019-05-15T02:44:40.511Z,99476.89
2019-05-15T02:47:10.106Z,99468.70
2019-05-15T02:49:39.848Z,99471.17
2019-05-15T02:52:10.089Z,99471.97
2019-05-15T02:54:40.235Z,99470.23
2019-05-15T02:57:10.079Z,99475.53
2019-05-15T02:59:41.340Z,99468.87
2019-05-15T03:02:10.857Z,99467.48
2019-05-15T03:04:41.801Z,99469.95
2019-05-15T03:07:12.879Z,99470.19
2019-05-15T03:09:42.385Z,99466.55
2019-05-15T03:12:11.837Z,99468.80
2019-05-15T03:14:42.094Z,99462.92
2019-05-15T03:17:11.851Z,99461.42
2019-05-15T03:19:41.972Z,99462.88
2019-05-15T03:22:11.799Z,99464.81
2019-05-15T03:24:41.614Z,99463.94
2019-05-15T03:27:11.331Z,99457.63
2019-05-15T03:29:42.235Z,99456.12
2019-05-15T03:32:25.061Z,99454.03
2019-05-15T03:34:47.802Z,99456.34
2019-05-15T03:37:14.574Z,99449.75
2019-05-15T03:39:46.913Z,99450.55
2019-05-15T03:42:15.343Z,99452.81
2019-05-15T03:44:46.363Z,99457.31
2019-05-15T03:47:15.891Z,99450.39
2019-05-15T03:49:45.601Z,99448.95
2019-05-15T03:52:15.065Z,99453.08
2019-05-15T03:54:44.564Z,99450.13
2019-05-15T03:57:19.270Z,99452.69
2019-05-15T03:59:48.932Z,99455.59
2019-05-15T04:02:19.348Z,99458.42
2019-05-15T04:04:50.235Z,99459.08
2019-05-15T04:07:19.893Z,99457.63
2019-05-15T04:09:49.584Z,99464.16
2019-05-15T04:12:21.381Z,99458.97
2019-05-15T04:14:51.054Z,99462.56
2019-05-15T04:17:25.437Z,99461.97
2019-05-15T04:19:55.362Z,99462.13
2019-05-15T04:22:24.822Z,99460.15
2019-05-15T04:24:58.963Z,99456.76
2019-05-15T04:27:29.144Z,99458.22
2019-05-15T04:29:59.259Z,99457.95
2019-05-15T04:32:29.196Z,99460.03
2019-05-15T04:34:59.326Z,99459.81
2019-05-15T04:37:30.040Z,99456.85
2019-05-15T04:39:59.980Z,99460.41
2019-05-15T04:42:30.049Z,99460.13
2019-05-15T04:44:59.825Z,99458.04
2019-05-15T04:47:30.389Z,99456.66
2019-05-15T04:50:00.005Z,99454.13
2019-05-15T04:52:30.397Z,99448.13
2019-05-15T04:55:00.400Z,99445.81
2019-05-15T04:57:33.794Z,99446.89
2019-05-15T05:00:02.457Z,99447.93
2019-05-15T05:02:32.573Z,99447.05
2019-05-15T05:05:02.250Z,99444.70
2019-05-15T05:07:32.861Z,99444.84
2019-05-15T05:10:04.021Z,99445.75
2019-05-15T05:12:33.483Z,99439.09
2019-05-15T05:15:03.132Z,99440.19
2019-05-15T05:17:32.664Z,99437.34
2019-05-15T05:20:02.136Z,99439.35
2019-05-15T05:22:31.650Z,99441.17
2019-05-15T05:25:01.165Z,99439.06
2019-05-15T05:27:30.653Z,99434.64
2019-05-15T05:30:01.633Z,99438.83
2019-05-15T05:32:35.088Z,99436.42
2019-05-15T05:35:03.760Z,99437.31
2019-05-15T05:37:34.080Z,99436.51
2019-05-15T05:40:05.052Z,99433.39
2019-05-15T05:42:34.512Z,99432.42
2019-05-15T05:45:04.531Z,99427.91
2019-05-15T05:47:34.212Z,99430.37
2019-05-15T05:50:07.791Z,99423.61
2019-05-15T05:52:38.896Z,99426.10
2019-05-15T05:55:08.946Z,99431.17
2019-05-15T05:57:38.620Z,99429.05
2019-05-15T06:00:10.232Z,99422.81
2019-05-15T06:02:59.188Z,99424.29
2019-05-15T06:05:28.718Z,99422.02
2019-05-15T06:07:58.367Z,99425.69
2019-05-15T06:10:29.355Z,99430.03
2019-05-15T06:12:58.885Z,99426.80
2019-05-15T06:15:28.711Z,99429.29
2019-05-15T06:17:59.286Z,99426.98
2019-05-15T06:20:28.901Z,99430.93
2019-05-15T06:22:58.416Z,99424.64
2019-05-15T06:25:30.561Z,99420.48
2019-05-15T06:27:59.274Z,99421.27
2019-05-15T06:30:31.251Z,99418.30
2019-05-15T06:33:09.068Z,99422.11
2019-05-15T06:35:32.727Z,99418.47
2019-05-15T06:38:02.550Z,99412.65
2019-05-15T06:40:32.200Z,99409.92
2019-05-15T06:43:01.681Z,99403.75
2019-05-15T06:45:31.231Z,99404.78
2019-05-15T06:48:01.600Z,99394.79
2019-05-15T06:50:35.268Z,99383.94
2019-05-15T06:53:08.337Z,99399.09
2019-05-15T06:55:38.845Z,99393.44
2019-05-15T06:58:09.184Z,99388.52
2019-05-15T07:00:39.228Z,99390.14
2019-05-15T07:03:20.130Z,99392.13
2019-05-15T07:05:40.045Z,99393.91
2019-05-15T07:08:09.534Z,99390.27
2019-05-15T07:10:39.160Z,99385.44
2019-05-15T07:13:08.912Z,99384.45
2019-05-15T07:15:58.509Z,99317.66
2019-05-15T07:18:28.542Z,99383.13
2019-05-15T07:20:58.712Z,99378.91
2019-05-15T07:23:49.654Z,99385.90
2019-05-15T07:26:18.876Z,99377.38
2019-05-15T07:28:48.727Z,99360.89
2019-05-15T07:31:18.346Z,99363.33
2019-05-15T07:33:49.158Z,99359.61
2019-05-15T07:36:19.455Z,99350.52
2019-05-15T07:38:49.016Z,99354.27
2019-05-15T07:41:18.696Z,99340.05
2019-05-15T07:43:49.383Z,99337.23
2019-05-15T07:46:19.190Z,99334.09
2019-05-15T07:48:49.200Z,99328.74
2019-05-15T07:51:18.834Z,99339.22
2019-05-15T07:53:49.014Z,99339.66
2019-05-15T07:56:18.830Z,99335.55
2019-05-15T07:58:52.628Z,99329.11
2019-05-15T08:01:19.800Z,99353.72
2019-05-15T08:03:58.726Z,99335.02
2019-05-15T08:06:20.614Z,99319.14
2019-05-15T08:08:55.854Z,99308.23
2019-05-15T08:11:25.523Z,99302.98
2019-05-15T08:13:54.977Z,99313.25
2019-05-15T08:16:24.510Z,99336.95
2019-05-15T08:18:53.995Z,99341.97
2019-05-15T08:21:23.523Z,99329.74
2019-05-15T08:23:53.224Z,99307.10
2019-05-15T08:26:22.880Z,99304.05
2019-05-15T08:28:52.349Z,99288.73
2019-05-15T08:31:22.148Z,99278.70
2019-05-15T08:33:51.703Z,99298.59
2019-05-15T08:36:21.207Z,99292.01
2019-05-15T08:38:50.736Z,99282.91
2019-05-15T08:41:20.265Z,99287.69
2019-05-15T08:43:49.951Z,99278.78
2019-05-15T08:46:19.502Z,99285.17
2019-05-15T08:48:49.272Z,99278.05
2019-05-15T08:51:19.469Z,99272.31
2019-05-15T08:53:49.299Z,99269.88
2019-05-15T08:56:19.420Z,99271.95
2019-05-15T08:58:49.253Z,99273.19
2019-05-15T09:01:38.406Z,99296.75
2019-05-15T09:04:08.992Z,99283.09
2019-05-15T09:06:41.432Z,99279.06
2019-05-15T09:09:10.763Z,99273.75
2019-05-15T09:11:40.217Z,99255.55
2019-05-15T09:14:09.846Z,99254.59
2019-05-15T09:16:39.364Z,99283.12
2019-05-15T09:19:08.852Z,99278.06
2019-05-15T09:21:38.905Z,99276.23
2019-05-15T09:24:09.462Z,99260.90
2019-05-15T09:26:40.401Z,99262.99
2019-05-15T09:29:10.163Z,99250.28
2019-05-15T09:31:59.218Z,99235.98
2019-05-15T09:34:46.439Z,99244.58
2019-05-15T09:37:00.145Z,99249.03
2019-05-15T09:39:29.755Z,99243.21
2019-05-15T09:41:59.419Z,99229.98
2019-05-15T09:44:28.882Z,99231.32
2019-05-15T09:46:58.634Z,99206.96
2019-05-15T09:49:29.847Z,99208.81
2019-05-15T09:51:59.405Z,99206.39
2019-05-15T09:54:29.526Z,99208.48
2019-05-15T09:57:18.910Z,99212.83
2019-05-15T09:59:48.913Z,99222.91
2019-05-15T10:02:19.108Z,99211.35
2019-05-15T10:05:05.107Z,99200.45
2019-05-15T10:07:20.359Z,99194.71
2019-05-15T10:09:52.309Z,99181.56
2019-05-15T10:12:21.149Z,99174.86
2019-05-15T10:14:50.743Z,99198.17
2019-05-15T10:17:22.689Z,99196.13
2019-05-15T10:19:52.553Z,99201.50
2019-05-15T10:22:22.119Z,99194.94
2019-05-15T10:24:51.617Z,99192.74
2019-05-15T10:27:21.129Z,99179.36
2019-05-15T10:29:50.671Z,99165.41
2019-05-15T10:32:20.284Z,99191.16
2019-05-15T10:34:49.789Z,99173.94
2019-05-15T10:37:19.371Z,99166.36
2019-05-15T10:39:52.592Z,99186.56
2019-05-15T10:42:20.605Z,99182.58
2019-05-15T10:44:50.145Z,99168.81
2019-05-15T10:47:20.690Z,99167.91
2019-05-15T10:49:50.180Z,99147.51
2019-05-15T10:52:19.909Z,99166.58
2019-05-15T10:54:49.525Z,99156.89
2019-05-15T10:57:19.099Z,99152.80
2019-05-15T10:59:48.638Z,99144.48
2019-05-15T11:02:19.246Z,99153.97
2019-05-15T11:04:49.020Z,99141.67
2019-05-15T11:07:19.472Z,99145.88
2019-05-15T11:09:49.458Z,99140.78
2019-05-15T11:12:19.180Z,99139.84
2019-05-15T11:14:49.454Z,99139.37
2019-05-15T11:17:19.087Z,99132.96
2019-05-15T11:19:49.771Z,99120.22
2019-05-15T11:22:19.848Z,99130.69
2019-05-15T11:24:52.804Z,99138.27
2019-05-15T11:27:20.559Z,99114.14
2019-05-15T11:29:50.124Z,99119.33
2019-05-15T11:32:19.787Z,99124.84
2019-05-15T11:34:49.408Z,99133.67
2019-05-15T11:37:19.137Z,99117.21
2019-05-15T11:39:48.612Z,99100.10
2019-05-15T11:42:20.291Z,99110.94
2019-05-15T11:44:53.162Z,99081.77
2019-05-15T11:47:24.303Z,99102.11
2019-05-15T11:49:53.831Z,99094.98
2019-05-15T11:52:23.508Z,99082.88
2019-05-15T11:55:12.562Z,99084.02
2019-05-15T11:57:46.962Z,99082.81
2019-05-15T12:00:19.206Z,99100.58
2019-05-15T12:03:05.061Z,99103.67
2019-05-15T12:05:38.283Z,99103.36
2019-05-15T12:08:29.031Z,99095.84
2019-05-15T12:10:59.160Z,99085.75
2019-05-15T12:13:29.075Z,99107.48
2019-05-15T12:15:59.023Z,99101.50
2019-05-15T12:18:28.856Z,99087.51
2019-05-15T12:20:59.640Z,99095.67
2019-05-15T12:23:29.580Z,99096.26
2019-05-15T12:25:59.864Z,99085.55
2019-05-15T12:28:29.913Z,99085.32
2019-05-15T12:30:59.989Z,99088.03
2019-05-15T12:33:29.683Z,99069.41
2019-05-15T12:35:59.322Z,99079.37
2019-05-15T12:38:29.205Z,99064.75
2019-05-15T13:01:35.733Z,99037.22
2019-05-15T13:04:05.269Z,99041.15
2019-05-15T13:06:47.421Z,99045.16
2019-05-15T13:09:08.692Z,99038.50
2019-05-15T13:11:39.900Z,99038.52
2019-05-15T13:14:12.029Z,99033.03
2019-05-15T13:16:41.550Z,99034.73
2019-05-15T13:19:12.059Z,99031.14
2019-05-15T13:21:41.695Z,99030.60
2019-05-15T13:24:11.795Z,99039.30
2019-05-15T13:26:41.421Z,99042.91
2019-05-15T13:29:10.905Z,99041.36
2019-05-15T13:31:40.516Z,99036.28
2019-05-15T13:34:10.198Z,99034.19
2019-05-15T13:36:39.666Z,99032.72
2019-05-15T13:39:09.228Z,99030.10
2019-05-15T13:41:38.801Z,99034.45
2019-05-15T13:44:09.120Z,99026.94
2019-05-15T13:46:38.658Z,99026.45
2019-05-15T13:49:08.474Z,99026.45
2019-05-15T13:51:38.606Z,99028.37
2019-05-15T13:54:08.833Z,99019.36
2019-05-15T13:56:38.556Z,98999.33
2019-05-15T13:59:08.224Z,99028.88
2019-05-15T14:01:39.303Z,99015.94
2019-05-15T14:04:09.199Z,99010.77
2019-05-15T14:06:44.254Z,99017.54
2019-05-15T14:09:13.739Z,99015.42
2019-05-15T14:11:48.915Z,99023.49
2019-05-15T14:14:16.933Z,99015.13
2019-05-15T14:16:55.172Z,99007.70
2019-05-15T14:19:24.664Z,99003.53
2019-05-15T14:21:54.196Z,99008.19
2019-05-15T14:24:43.406Z,98984.55
2019-05-15T14:27:12.887Z,98990.42
2019-05-15T14:29:42.654Z,99006.87
2019-05-15T14:32:12.309Z,99015.38
2019-05-15T14:34:41.804Z,99008.16
2019-05-15T14:37:11.303Z,99004.51
2019-05-15T14:39:40.775Z,98990.74
2019-05-15T14:42:10.275Z,98994.45
2019-05-15T14:44:39.744Z,98989.80
2019-05-15T14:47:11.868Z,99002.54
2019-05-15T14:49:44.493Z,98980.58
2019-05-15T14:52:12.695Z,98987.05
2019-05-15T14:54:42.202Z,98973.66
2019-05-15T14:57:11.671Z,98984.03
2019-05-15T14:59:41.163Z,98981.62
2019-05-15T15:02:10.698Z,98991.81
2019-05-15T15:04:40.196Z,98988.81
2019-05-15T15:07:09.656Z,98999.32
2019-05-15T15:09:39.151Z,98985.33
2019-05-15T15:12:08.634Z,98979.00
2019-05-15T15:14:38.376Z,98974.27
2019-05-15T15:17:07.898Z,98975.91
2019-05-15T15:19:38.903Z,98978.59
2019-05-15T15:22:08.798Z,98988.13
2019-05-15T15:24:41.558Z,98987.09
2019-05-15T15:27:11.712Z,98981.16
2019-05-15T15:29:41.251Z,98983.19
2019-05-15T15:32:10.759Z,98979.98
2019-05-15T15:34:40.247Z,98971.79
2019-05-15T15:37:09.718Z,98967.24
2019-05-15T15:39:39.300Z,98970.47
2019-05-15T15:42:10.304Z,98973.63
2019-05-15T15:44:39.782Z,98973.70
2019-05-15T15:47:09.311Z,98981.82
2019-05-15T15:49:38.982Z,98974.70
2019-05-15T15:52:08.885Z,98982.38
2019-05-15T15:54:39.536Z,98975.03
2019-05-15T15:57:15.827Z,98952.27
2019-05-15T15:59:45.310Z,98976.61
2019-05-15T16:02:14.849Z,98976.52
2019-05-15T16:04:44.319Z,98972.02
2019-05-15T16:07:17.803Z,98971.16
2019-05-15T16:09:48.342Z,98970.94
2019-05-15T16:12:18.606Z,98970.67
2019-05-15T16:14:48.848Z,98975.98
2019-05-15T16:17:18.388Z,98976.16
2019-05-15T16:19:49.174Z,98980.02
2019-05-15T16:22:19.066Z,98976.09
2019-05-15T16:24:49.262Z,98975.30
2019-05-15T16:27:19.160Z,98966.92
2019-05-15T16:29:48.680Z,98965.16
2019-05-15T16:32:21.544Z,98972.45
2019-05-15T16:34:49.258Z,98973.41
2019-05-15T16:37:19.100Z,98967.83
2019-05-15T16:39:48.860Z,98959.13
2019-05-15T16:42:18.591Z,98962.95
2019-05-15T16:44:49.028Z,98961.03
2019-05-15T16:47:38.774Z,98968.06
2019-05-15T16:50:10.564Z,98971.21
2019-05-15T16:52:40.164Z,98966.88
2019-05-15T16:55:11.421Z,98963.38
2019-05-15T16:57:40.950Z,98960.61
2019-05-15T17:00:12.036Z,98967.26
2019-05-15T17:02:41.501Z,98958.32
2019-05-15T17:05:11.896Z,98950.22
2019-05-15T17:07:48.897Z,98953.45
2019-05-15T17:10:18.850Z,98948.52
2019-05-15T17:12:49.296Z,98952.92
2019-05-15T17:15:19.859Z,98956.31
2019-05-15T17:17:49.655Z,98954.03
2019-05-15T17:20:19.897Z,98952.83
2019-05-15T17:22:49.380Z,98949.08
2019-05-15T17:25:19.037Z,98955.50
2019-05-15T17:27:48.981Z,98953.98
2019-05-15T17:30:19.470Z,98949.10
2019-05-15T17:32:49.479Z,98948.44
2019-05-15T17:35:19.277Z,98957.47
2019-05-15T17:37:51.643Z,98961.12
2019-05-15T17:40:21.505Z,98954.88
2019-05-15T17:42:50.961Z,98958.19
2019-05-15T17:45:20.947Z,98949.80
2019-05-15T17:47:50.838Z,98948.73
2019-05-15T17:50:20.643Z,98954.91
2019-05-15T17:52:50.121Z,98944.88
2019-05-15T17:55:21.353Z,98957.09
2019-05-15T17:57:57.171Z,98958.20
2019-05-15T18:00:22.559Z,98965.37
2019-05-15T18:02:52.369Z,98963.34
2019-05-15T18:05:24.957Z,98966.58
2019-05-15T18:07:53.072Z,98962.12
2019-05-15T18:10:22.572Z,98964.02
2019-05-15T18:12:52.092Z,98961.94
2019-05-15T18:15:21.640Z,98957.20
2019-05-15T18:17:51.393Z,98964.37
2019-05-15T18:20:25.531Z,98961.22
2019-05-15T18:23:04.104Z,98960.98
2019-05-15T18:25:33.591Z,98964.08
2019-05-15T18:28:04.088Z,98965.06
2019-05-15T18:30:33.973Z,98968.12
2019-05-15T18:33:03.492Z,98969.72
2019-05-15T18:35:33.426Z,98961.47
2019-05-15T18:38:03.117Z,98965.17
2019-05-15T18:40:51.920Z,98980.84
2019-05-15T18:43:21.546Z,98978.19
2019-05-15T18:45:51.070Z,98970.30
2019-05-15T18:48:20.578Z,98981.89
2019-05-15T18:50:50.085Z,98986.34
2019-05-15T18:53:19.603Z,98984.58
2019-05-15T18:55:49.113Z,98981.77
2019-05-15T18:58:19.245Z,98985.02
2019-05-15T19:00:49.073Z,98985.30
2019-05-15T19:03:22.630Z,98984.05
2019-05-15T19:05:49.857Z,98982.31
2019-05-15T19:08:19.432Z,98994.48
2019-05-15T19:10:48.931Z,98995.52
2019-05-15T19:13:18.582Z,98996.32
2019-05-15T19:16:08.295Z,98987.91
2019-05-15T19:18:38.507Z,98994.27
2019-05-15T19:21:08.224Z,98994.36
2019-05-15T19:23:58.442Z,98995.20
2019-05-15T19:26:29.128Z,98995.84
2019-05-15T19:28:59.339Z,98993.89
2019-05-15T19:31:30.657Z,98996.45
2019-05-15T19:34:19.891Z,99001.53
2019-05-15T19:36:49.369Z,99001.11
2019-05-15T19:39:18.883Z,99011.28
2019-05-15T19:41:48.503Z,99009.27
2019-05-15T19:44:18.123Z,99017.52
2019-05-15T19:46:48.095Z,99015.25
2019-05-15T19:49:18.058Z,99021.92
2019-05-15T19:52:08.508Z,99024.29
2019-05-15T19:54:38.190Z,99025.86
2019-05-15T19:57:09.153Z,99023.59
2019-05-15T19:59:58.414Z,99027.05
2019-05-15T20:02:28.570Z,99028.02
2019-05-15T20:04:58.443Z,99027.20
2019-05-15T20:07:28.800Z,99024.30
2019-05-15T20:09:58.529Z,99029.52
2019-05-15T20:12:28.174Z,99030.24
2019-05-15T20:14:58.348Z,99028.30
2019-05-15T20:17:27.946Z,99026.72
2019-05-15T20:19:58.056Z,99023.82
2019-05-15T20:22:28.332Z,99024.42
2019-05-15T20:24:58.763Z,99025.94
2019-05-15T20:27:28.690Z,99026.84
2019-05-15T20:29:58.548Z,99032.07
2019-05-15T20:32:28.106Z,99029.23
2019-05-15T20:34:57.858Z,99028.40
2019-05-15T20:37:28.942Z,99025.09
2019-05-15T20:39:58.508Z,99029.90
2019-05-15T20:42:28.362Z,99030.86
2019-05-15T20:44:58.020Z,99031.48
2019-05-15T20:47:28.031Z,99033.05
2019-05-15T20:49:57.719Z,99028.37
2019-05-15T20:52:28.508Z,99023.36
2019-05-15T20:54:59.313Z,99021.65
2019-05-15T20:57:29.018Z,99019.88
2019-05-15T20:59:58.741Z,99022.43
2019-05-15T21:02:29.021Z,99022.55
2019-05-15T21:05:00.648Z,99024.36
2019-05-15T21:07:38.671Z,99026.77
2019-05-15T21:10:08.560Z,99024.98
2019-05-15T21:12:41.063Z,99028.57
2019-05-15T21:15:10.832Z,99027.67
2019-05-15T21:17:41.638Z,99023.67
2019-05-15T21:20:12.168Z,99024.66
2019-05-15T21:22:41.703Z,99021.16
2019-05-15T21:25:11.680Z,99015.91
2019-05-15T21:27:43.325Z,99013.52
2019-05-15T21:30:15.619Z,99007.45
2019-05-15T21:32:45.094Z,99008.67
2019-05-15T21:35:14.858Z,99002.87
2019-05-15T21:37:44.339Z,98998.71
2019-05-15T21:40:14.233Z,98995.14
2019-05-15T21:42:43.735Z,99001.59
2019-05-15T21:45:14.637Z,98997.92
2019-05-15T21:47:44.304Z,98996.16
2019-05-15T21:50:15.291Z,98991.29
2019-05-15T21:52:44.784Z,98994.89
2019-05-15T21:55:14.638Z,98990.08
2019-05-15T21:57:44.178Z,98989.45
2019-05-15T22:00:18.468Z,98980.61
2019-05-15T22:03:07.632Z,98983.72
2019-05-15T22:05:38.472Z,98977.28
2019-05-15T22:08:08.275Z,98978.36
2019-05-15T22:10:38.903Z,98977.13
2019-05-15T22:13:08.562Z,98972.04
2019-05-15T22:15:59.297Z,98972.43
2019-05-15T22:18:47.961Z,98972.85
2019-05-15T22:21:18.591Z,98972.29
2019-05-15T22:23:48.212Z,98965.26
2019-05-15T22:26:18.492Z,98966.39
2019-05-15T22:28:49.232Z,98963.14
2019-05-15T22:31:20.365Z,98964.28
2019-05-15T22:33:50.101Z,98964.06
2019-05-15T22:36:19.749Z,98958.27
2019-05-15T22:38:50.391Z,98960.88
2019-05-15T22:41:19.917Z,98958.50
2019-05-15T22:43:49.400Z,98955.35
2019-05-15T22:46:18.923Z,98952.14
2019-05-15T22:49:07.723Z,98855.80
2019-05-15T22:51:38.234Z,98948.59
2019-05-15T22:54:08.670Z,98946.41
2019-05-15T22:56:38.410Z,98944.38
2019-05-15T22:59:08.619Z,98948.26
2019-05-15T23:01:41.690Z,98946.90
2019-05-15T23:04:11.362Z,98946.99
2019-05-15T23:06:46.519Z,98949.23
2019-05-15T23:09:16.006Z,98945.56
2019-05-15T23:11:45.562Z,98948.89
2019-05-15T23:14:15.043Z,98946.56
2019-05-15T23:16:44.708Z,98938.86
2019-05-15T23:19:14.159Z,98937.11
2019-05-15T23:21:43.611Z,98934.64
2019-05-15T23:24:13.140Z,98934.41
2019-05-15T23:26:42.628Z,98934.25
2019-05-15T23:29:12.082Z,98928.03
2019-05-15T23:31:41.583Z,98925.47
2019-05-15T23:34:11.039Z,98919.70
2019-05-15T23:36:41.670Z,98918.32
2019-05-15T23:39:11.125Z,98911.73
2019-05-15T23:41:40.604Z,98908.39
2019-05-15T23:44:12.734Z,98904.01
2019-05-15T23:46:42.276Z,98900.18
2019-05-15T23:49:11.741Z,98901.33
2019-05-15T23:51:44.150Z,98892.40
2019-05-15T23:54:32.975Z,98889.24
2019-05-15T23:57:02.496Z,98886.41
2019-05-15T23:59:31.995Z,98883.71
